sensor_id;sensor_type;location;lat;lon;timestamp;P1;durP1;ratioP1;P2;durP2;ratioP2
74904;SDS011;63465;50.862;6.220;2024-02-21T07:12:30;142.30;;;63.43;;
74904;SDS011;63465;50.862;6.220;2024-02-21T07:14:56;155.30;;;71.43;;
74904;SDS011;63465;50.862;6.220;2024-02-21T07:17:21;165.53;;;74.50;;
74904;SDS011;63465;50.862;6.220;2024-02-21T07:19:46;166.83;;;71.77;;
74904;SDS011;63465;50.862;6.220;2024-02-21T07:22:11;165.53;;;75.80;;
74904;SDS011;63465;50.862;6.220;2024-02-21T07:24:37;170.70;;;79.87;;
74904;SDS011;63465;50.862;6.220;2024-02-21T07:27:02;167.90;;;76.50;;
74904;SDS011;63465;50.862;6.220;2024-02-21T07:29:29;164.73;;;75.60;;
74904;SDS011;63465;50.862;6.220;2024-02-21T07:31:55;166.17;;;77.97;;
74904;SDS011;63465;50.862;6.220;2024-02-21T07:34:20;168.40;;;81.30;;
74904;SDS011;63465;50.862;6.220;2024-02-21T07:36:46;168.10;;;79.37;;
74904;SDS011;63465;50.862;6.220;2024-02-21T07:39:11;163.23;;;79.40;;
74904;SDS011;63465;50.862;6.220;2024-02-21T07:41:37;177.00;;;80.70;;
74904;SDS011;63465;50.862;6.220;2024-02-21T07:44:04;172.67;;;78.20;;
74904;SDS011;63465;50.862;6.220;2024-02-21T07:46:29;173.47;;;80.97;;
74904;SDS011;63465;50.862;6.220;2024-02-21T07:48:55;166.67;;;79.70;;
74904;SDS011;63465;50.862;6.220;2024-02-21T07:51:20;170.83;;;80.20;;
74904;SDS011;63465;50.862;6.220;2024-02-21T07:53:45;164.03;;;77.20;;
74904;SDS011;63465;50.862;6.220;2024-02-21T07:56:14;166.93;;;80.00;;
74904;SDS011;63465;50.862;6.220;2024-02-21T07:58:43;163.93;;;76.20;;
74904;SDS011;63465;50.862;6.220;2024-02-21T08:01:08;166.87;;;77.10;;
74904;SDS011;63465;50.862;6.220;2024-02-21T08:03:34;166.33;;;76.33;;
74904;SDS011;63465;50.862;6.220;2024-02-21T08:05:59;194.67;;;90.67;;
74904;SDS011;63465;50.862;6.220;2024-02-21T08:08:24;187.97;;;88.37;;
74904;SDS011;63465;50.862;6.220;2024-02-21T08:10:51;180.40;;;87.00;;
74904;SDS011;63465;50.862;6.220;2024-02-21T08:13:17;195.03;;;92.03;;
74904;SDS011;63465;50.862;6.220;2024-02-21T08:15:43;189.63;;;91.47;;
74904;SDS011;63465;50.862;6.220;2024-02-21T08:18:08;198.80;;;90.20;;
74904;SDS011;63465;50.862;6.220;2024-02-21T08:20:34;189.77;;;89.20;;
74904;SDS011;63465;50.862;6.220;2024-02-21T08:22:59;196.50;;;90.00;;
74904;SDS011;63465;50.862;6.220;2024-02-21T08:25:24;197.70;;;90.07;;
74904;SDS011;63465;50.862;6.220;2024-02-21T08:27:50;195.43;;;90.57;;
74904;SDS011;63465;50.862;6.220;2024-02-21T08:30:16;184.97;;;89.20;;
74904;SDS011;63465;50.862;6.220;2024-02-21T08:32:42;191.30;;;90.57;;
74904;SDS011;63465;50.862;6.220;2024-02-21T08:35:07;207.63;;;97.70;;
74904;SDS011;63465;50.862;6.220;2024-02-21T08:37:33;209.43;;;97.47;;
74904;SDS011;63465;50.862;6.220;2024-02-21T08:39:58;217.57;;;101.17;;
74904;SDS011;63465;50.862;6.220;2024-02-21T08:42:23;211.37;;;98.60;;
74904;SDS011;63465;50.862;6.220;2024-02-21T08:44:49;216.43;;;102.67;;
74904;SDS011;63465;50.862;6.220;2024-02-21T08:47:14;219.33;;;102.50;;
74904;SDS011;63465;50.862;6.220;2024-02-21T08:49:39;213.97;;;102.77;;
74904;SDS011;63465;50.862;6.220;2024-02-21T08:52:05;236.10;;;107.90;;
74904;SDS011;63465;50.862;6.220;2024-02-21T08:54:31;207.00;;;100.70;;
74904;SDS011;63465;50.862;6.220;2024-02-21T08:56:59;210.60;;;103.30;;
74904;SDS011;63465;50.862;6.220;2024-02-21T08:59:24;218.27;;;104.27;;
74904;SDS011;63465;50.862;6.220;2024-02-21T09:01:51;210.30;;;99.23;;
74904;SDS011;63465;50.862;6.220;2024-02-21T09:04:17;213.93;;;103.40;;
74904;SDS011;63465;50.862;6.220;2024-02-21T09:06:42;225.23;;;105.40;;
74904;SDS011;63465;50.862;6.220;2024-02-21T09:09:08;223.10;;;104.97;;
74904;SDS011;63465;50.862;6.220;2024-02-21T09:11:34;214.43;;;101.20;;
74904;SDS011;63465;50.862;6.220;2024-02-21T09:14:00;211.73;;;101.03;;
74904;SDS011;63465;50.862;6.220;2024-02-21T09:16:25;207.53;;;101.43;;
74904;SDS011;63465;50.862;6.220;2024-02-21T09:18:50;207.17;;;102.97;;
74904;SDS011;63465;50.862;6.220;2024-02-21T09:21:17;211.07;;;98.37;;
74904;SDS011;63465;50.862;6.220;2024-02-21T09:23:43;199.43;;;96.53;;
74904;SDS011;63465;50.862;6.220;2024-02-21T09:26:09;202.30;;;98.77;;
74904;SDS011;63465;50.862;6.220;2024-02-21T09:28:38;198.63;;;97.37;;
74904;SDS011;63465;50.862;6.220;2024-02-21T09:31:04;202.40;;;95.87;;
74904;SDS011;63465;50.862;6.220;2024-02-21T09:33:29;201.63;;;97.00;;
74904;SDS011;63465;50.862;6.220;2024-02-21T09:35:54;203.13;;;100.83;;
74904;SDS011;63465;50.862;6.220;2024-02-21T09:38:20;199.70;;;95.97;;
74904;SDS011;63465;50.862;6.220;2024-02-21T09:40:46;208.00;;;94.10;;
74904;SDS011;63465;50.862;6.220;2024-02-21T09:43:12;203.63;;;96.47;;
74904;SDS011;63465;50.862;6.220;2024-02-21T09:45:42;198.63;;;97.97;;
74904;SDS011;63465;50.862;6.220;2024-02-21T09:50:48;197.60;;;91.27;;
74904;SDS011;63465;50.862;6.220;2024-02-21T09:53:14;183.03;;;88.73;;
74904;SDS011;63465;50.862;6.220;2024-02-21T09:55:40;186.60;;;90.40;;
74904;SDS011;63465;50.862;6.220;2024-02-21T09:58:08;194.50;;;91.20;;
74904;SDS011;63465;50.862;6.220;2024-02-21T10:00:35;190.23;;;90.37;;
74904;SDS011;63465;50.862;6.220;2024-02-21T10:03:01;186.73;;;90.20;;
74904;SDS011;63465;50.862;6.220;2024-02-21T10:05:26;181.63;;;87.17;;
74904;SDS011;63465;50.862;6.220;2024-02-21T10:07:52;183.67;;;86.00;;
74904;SDS011;63465;50.862;6.220;2024-02-21T10:10:17;181.07;;;88.83;;
74904;SDS011;63465;50.862;6.220;2024-02-21T10:12:52;171.43;;;83.73;;
74904;SDS011;63465;50.862;6.220;2024-02-21T10:15:23;170.10;;;80.30;;
74904;SDS011;63465;50.862;6.220;2024-02-21T10:17:49;178.97;;;84.10;;
74904;SDS011;63465;50.862;6.220;2024-02-21T10:20:23;167.87;;;84.00;;
74904;SDS011;63465;50.862;6.220;2024-02-21T10:22:48;175.10;;;78.20;;
74904;SDS011;63465;50.862;6.220;2024-02-21T10:25:13;171.20;;;81.50;;
74904;SDS011;63465;50.862;6.220;2024-02-21T10:27:39;160.37;;;77.67;;
74904;SDS011;63465;50.862;6.220;2024-02-21T10:30:12;163.70;;;78.10;;
74904;SDS011;63465;50.862;6.220;2024-02-21T10:32:51;169.70;;;80.70;;
74904;SDS011;63465;50.862;6.220;2024-02-21T10:35:32;160.63;;;78.37;;
74904;SDS011;63465;50.862;6.220;2024-02-21T10:37:58;153.57;;;74.53;;
74904;SDS011;63465;50.862;6.220;2024-02-21T10:40:25;159.00;;;75.73;;
74904;SDS011;63465;50.862;6.220;2024-02-21T10:42:57;156.23;;;76.33;;
74904;SDS011;63465;50.862;6.220;2024-02-21T10:45:31;157.23;;;75.03;;
74904;SDS011;63465;50.862;6.220;2024-02-21T10:48:10;149.43;;;71.07;;
74904;SDS011;63465;50.862;6.220;2024-02-21T10:56:38;155.40;;;74.43;;
74904;SDS011;63465;50.862;6.220;2024-02-21T10:59:06;150.60;;;70.93;;
74904;SDS011;63465;50.862;6.220;2024-02-21T11:01:33;135.77;;;67.47;;
74904;SDS011;63465;50.862;6.220;2024-02-21T11:04:07;136.73;;;66.80;;
74904;SDS011;63465;50.862;6.220;2024-02-21T11:06:35;140.03;;;65.20;;
74904;SDS011;63465;50.862;6.220;2024-02-21T11:11:29;141.63;;;65.50;;
74904;SDS011;63465;50.862;6.220;2024-02-21T11:14:07;129.87;;;62.33;;
74904;SDS011;63465;50.862;6.220;2024-02-21T11:16:37;138.97;;;64.33;;
74904;SDS011;63465;50.862;6.220;2024-02-21T11:19:25;137.17;;;62.23;;
74904;SDS011;63465;50.862;6.220;2024-02-21T11:21:51;130.33;;;60.73;;
74904;SDS011;63465;50.862;6.220;2024-02-21T11:24:32;130.13;;;62.17;;
74904;SDS011;63465;50.862;6.220;2024-02-21T11:29:43;125.57;;;59.53;;
74904;SDS011;63465;50.862;6.220;2024-02-21T11:32:15;125.40;;;60.27;;
74904;SDS011;63465;50.862;6.220;2024-02-21T11:34:52;126.87;;;59.80;;
74904;SDS011;63465;50.862;6.220;2024-02-21T11:37:29;123.37;;;57.00;;
74904;SDS011;63465;50.862;6.220;2024-02-21T11:39:57;115.93;;;56.33;;
74904;SDS011;63465;50.862;6.220;2024-02-21T11:42:26;117.30;;;56.47;;
74904;SDS011;63465;50.862;6.220;2024-02-21T11:44:53;117.97;;;56.07;;
74904;SDS011;63465;50.862;6.220;2024-02-21T11:47:21;121.70;;;56.63;;
74904;SDS011;63465;50.862;6.220;2024-02-21T11:49:47;133.53;;;65.30;;
74904;SDS011;63465;50.862;6.220;2024-02-21T11:52:15;244.93;;;114.87;;
74904;SDS011;63465;50.862;6.220;2024-02-21T11:54:41;202.00;;;95.67;;
74904;SDS011;63465;50.862;6.220;2024-02-21T11:57:07;188.17;;;91.07;;
74904;SDS011;63465;50.862;6.220;2024-02-21T11:59:33;175.40;;;85.07;;
74904;SDS011;63465;50.862;6.220;2024-02-21T12:01:59;177.70;;;85.80;;
74904;SDS011;63465;50.862;6.220;2024-02-21T12:04:25;164.63;;;81.27;;
74904;SDS011;63465;50.862;6.220;2024-02-21T12:06:52;165.37;;;78.97;;
74904;SDS011;63465;50.862;6.220;2024-02-21T12:09:18;157.00;;;78.97;;
74904;SDS011;63465;50.862;6.220;2024-02-21T12:11:44;163.83;;;77.20;;
74904;SDS011;63465;50.862;6.220;2024-02-21T12:14:11;151.47;;;72.50;;
74904;SDS011;63465;50.862;6.220;2024-02-21T12:19:09;143.93;;;70.77;;
74904;SDS011;63465;50.862;6.220;2024-02-21T12:21:34;162.03;;;74.47;;
74904;SDS011;63465;50.862;6.220;2024-02-21T12:26:56;143.63;;;69.73;;
74904;SDS011;63465;50.862;6.220;2024-02-21T12:29:24;138.40;;;68.27;;
74904;SDS011;63465;50.862;6.220;2024-02-21T12:31:49;151.60;;;72.20;;
74904;SDS011;63465;50.862;6.220;2024-02-21T12:34:15;149.60;;;70.77;;
74904;SDS011;63465;50.862;6.220;2024-02-21T12:36:42;146.37;;;69.40;;
74904;SDS011;63465;50.862;6.220;2024-02-21T12:39:09;136.80;;;69.82;;
74904;SDS011;63465;50.862;6.220;2024-02-21T12:41:37;130.97;;;67.97;;
74904;SDS011;63465;50.862;6.220;2024-02-21T12:44:06;139.03;;;65.77;;
74904;SDS011;63465;50.862;6.220;2024-02-21T12:46:35;141.30;;;69.97;;
74904;SDS011;63465;50.862;6.220;2024-02-21T12:49:01;137.47;;;67.80;;
74904;SDS011;63465;50.862;6.220;2024-02-21T12:51:28;132.50;;;64.30;;
74904;SDS011;63465;50.862;6.220;2024-02-21T12:53:54;134.47;;;64.13;;
74904;SDS011;63465;50.862;6.220;2024-02-21T12:56:20;125.77;;;60.50;;
74904;SDS011;63465;50.862;6.220;2024-02-21T12:58:45;131.33;;;70.50;;
74904;SDS011;63465;50.862;6.220;2024-02-21T13:01:10;125.70;;;63.67;;
74904;SDS011;63465;50.862;6.220;2024-02-21T13:03:36;126.80;;;63.47;;
74904;SDS011;63465;50.862;6.220;2024-02-21T13:06:01;141.67;;;67.50;;
74904;SDS011;63465;50.862;6.220;2024-02-21T13:08:26;147.77;;;71.67;;
74904;SDS011;63465;50.862;6.220;2024-02-21T13:10:52;157.10;;;78.33;;
74904;SDS011;63465;50.862;6.220;2024-02-21T13:13:17;157.03;;;75.10;;
74904;SDS011;63465;50.862;6.220;2024-02-21T13:15:43;154.20;;;76.10;;
74904;SDS011;63465;50.862;6.220;2024-02-21T13:18:08;158.63;;;76.03;;
74904;SDS011;63465;50.862;6.220;2024-02-21T13:20:34;162.33;;;77.57;;
74904;SDS011;63465;50.862;6.220;2024-02-21T13:23:00;169.13;;;78.27;;
74904;SDS011;63465;50.862;6.220;2024-02-21T13:25:26;174.77;;;81.17;;
74904;SDS011;63465;50.862;6.220;2024-02-21T13:27:51;164.73;;;77.97;;
74904;SDS011;63465;50.862;6.220;2024-02-21T13:30:16;171.23;;;80.07;;
74904;SDS011;63465;50.862;6.220;2024-02-21T13:32:42;167.00;;;79.90;;
74904;SDS011;63465;50.862;6.220;2024-02-21T13:35:08;157.50;;;77.03;;
74904;SDS011;63465;50.862;6.220;2024-02-21T13:37:34;178.97;;;78.10;;
74904;SDS011;63465;50.862;6.220;2024-02-21T13:39:59;164.63;;;76.33;;
74904;SDS011;63465;50.862;6.220;2024-02-21T13:42:25;172.70;;;76.87;;
74904;SDS011;63465;50.862;6.220;2024-02-21T13:44:52;162.37;;;74.03;;
74904;SDS011;63465;50.862;6.220;2024-02-21T13:47:18;166.87;;;78.97;;
74904;SDS011;63465;50.862;6.220;2024-02-21T13:49:43;162.43;;;75.20;;
74904;SDS011;63465;50.862;6.220;2024-02-21T13:52:08;166.10;;;75.87;;
74904;SDS011;63465;50.862;6.220;2024-02-21T13:54:34;173.23;;;77.67;;
74904;SDS011;63465;50.862;6.220;2024-02-21T13:56:59;176.53;;;71.93;;
74904;SDS011;63465;50.862;6.220;2024-02-21T13:59:26;154.60;;;73.40;;
74904;SDS011;63465;50.862;6.220;2024-02-21T14:01:51;170.33;;;73.40;;
74904;SDS011;63465;50.862;6.220;2024-02-21T14:04:17;164.83;;;73.70;;
74904;SDS011;63465;50.862;6.220;2024-02-21T14:06:42;168.67;;;73.13;;
74904;SDS011;63465;50.862;6.220;2024-02-21T14:09:08;155.07;;;69.07;;
74904;SDS011;63465;50.862;6.220;2024-02-21T14:11:34;153.13;;;68.80;;
74904;SDS011;63465;50.862;6.220;2024-02-21T14:13:59;157.43;;;72.73;;
74904;SDS011;63465;50.862;6.220;2024-02-21T14:16:25;158.53;;;72.27;;
74904;SDS011;63465;50.862;6.220;2024-02-21T14:18:50;148.10;;;67.03;;
74904;SDS011;63465;50.862;6.220;2024-02-21T14:21:16;158.80;;;69.30;;
74904;SDS011;63465;50.862;6.220;2024-02-21T14:23:41;162.13;;;71.70;;
74904;SDS011;63465;50.862;6.220;2024-02-21T14:26:06;143.23;;;66.87;;
74904;SDS011;63465;50.862;6.220;2024-02-21T14:28:32;152.30;;;67.57;;
74904;SDS011;63465;50.862;6.220;2024-02-21T14:30:59;152.13;;;67.87;;
74904;SDS011;63465;50.862;6.220;2024-02-21T14:33:25;144.90;;;68.37;;
74904;SDS011;63465;50.862;6.220;2024-02-21T14:35:54;168.90;;;72.33;;
74904;SDS011;63465;50.862;6.220;2024-02-21T14:38:20;167.93;;;73.70;;
74904;SDS011;63465;50.862;6.220;2024-02-21T14:40:45;159.30;;;74.43;;
74904;SDS011;63465;50.862;6.220;2024-02-21T14:43:11;161.93;;;75.87;;
74904;SDS011;63465;50.862;6.220;2024-02-21T14:45:36;152.77;;;69.40;;
74904;SDS011;63465;50.862;6.220;2024-02-21T14:48:02;160.57;;;75.33;;
74904;SDS011;63465;50.862;6.220;2024-02-21T14:50:28;162.30;;;73.73;;
74904;SDS011;63465;50.862;6.220;2024-02-21T14:52:54;157.80;;;71.00;;
74904;SDS011;63465;50.862;6.220;2024-02-21T14:55:19;155.60;;;75.63;;
74904;SDS011;63465;50.862;6.220;2024-02-21T14:57:44;166.33;;;78.17;;
74904;SDS011;63465;50.862;6.220;2024-02-21T15:00:10;166.13;;;76.77;;
74904;SDS011;63465;50.862;6.220;2024-02-21T15:02:36;171.87;;;79.83;;
74904;SDS011;63465;50.862;6.220;2024-02-21T15:05:02;176.60;;;80.30;;
74904;SDS011;63465;50.862;6.220;2024-02-21T15:07:28;164.03;;;77.13;;
74904;SDS011;63465;50.862;6.220;2024-02-21T15:09:54;169.67;;;79.90;;
74904;SDS011;63465;50.862;6.220;2024-02-21T15:12:19;182.93;;;84.20;;
74904;SDS011;63465;50.862;6.220;2024-02-21T15:14:44;179.60;;;81.27;;
74904;SDS011;63465;50.862;6.220;2024-02-21T15:17:10;168.23;;;81.40;;
74904;SDS011;63465;50.862;6.220;2024-02-21T15:19:36;166.80;;;79.67;;
74904;SDS011;63465;50.862;6.220;2024-02-21T15:22:03;196.47;;;86.73;;
74904;SDS011;63465;50.862;6.220;2024-02-21T15:24:29;200.83;;;94.47;;
74904;SDS011;63465;50.862;6.220;2024-02-21T15:26:54;197.43;;;93.53;;
74904;SDS011;63465;50.862;6.220;2024-02-21T15:29:19;190.13;;;89.63;;
74904;SDS011;63465;50.862;6.220;2024-02-21T15:31:45;184.47;;;88.97;;
74904;SDS011;63465;50.862;6.220;2024-02-21T15:34:12;202.23;;;94.37;;
74904;SDS011;63465;50.862;6.220;2024-02-21T15:36:40;195.77;;;94.17;;
74904;SDS011;63465;50.862;6.220;2024-02-21T15:39:07;225.90;;;97.43;;
74904;SDS011;63465;50.862;6.220;2024-02-21T15:41:32;198.63;;;93.70;;
74904;SDS011;63465;50.862;6.220;2024-02-21T15:43:58;200.70;;;95.27;;
74904;SDS011;63465;50.862;6.220;2024-02-21T15:46:24;206.87;;;98.87;;
74904;SDS011;63465;50.862;6.220;2024-02-21T15:48:50;206.80;;;98.30;;
74904;SDS011;63465;50.862;6.220;2024-02-21T15:51:18;208.97;;;95.07;;
74904;SDS011;63465;50.862;6.220;2024-02-21T15:53:45;191.77;;;91.77;;
74904;SDS011;63465;50.862;6.220;2024-02-21T15:56:10;203.53;;;95.27;;
74904;SDS011;63465;50.862;6.220;2024-02-21T15:58:37;189.53;;;92.57;;
74904;SDS011;63465;50.862;6.220;2024-02-21T16:01:03;211.10;;;97.17;;
74904;SDS011;63465;50.862;6.220;2024-02-21T16:03:29;197.90;;;95.70;;
74904;SDS011;63465;50.862;6.220;2024-02-21T16:05:56;197.77;;;95.10;;
74904;SDS011;63465;50.862;6.220;2024-02-21T16:08:22;193.57;;;94.73;;
74904;SDS011;63465;50.862;6.220;2024-02-21T16:10:47;201.60;;;93.17;;
74904;SDS011;63465;50.862;6.220;2024-02-21T16:13:13;185.03;;;90.27;;
74904;SDS011;63465;50.862;6.220;2024-02-21T16:15:38;187.80;;;90.27;;
74904;SDS011;63465;50.862;6.220;2024-02-21T16:18:04;186.20;;;90.73;;
74904;SDS011;63465;50.862;6.220;2024-02-21T16:20:30;183.13;;;90.27;;
74904;SDS011;63465;50.862;6.220;2024-02-21T16:22:55;181.57;;;88.73;;
74904;SDS011;63465;50.862;6.220;2024-02-21T16:25:24;191.60;;;91.13;;
74904;SDS011;63465;50.862;6.220;2024-02-21T16:27:49;184.80;;;90.30;;
74904;SDS011;63465;50.862;6.220;2024-02-21T16:30:15;185.70;;;91.20;;
74904;SDS011;63465;50.862;6.220;2024-02-21T16:32:42;183.23;;;88.17;;
74904;SDS011;63465;50.862;6.220;2024-02-21T16:35:08;170.37;;;85.17;;
74904;SDS011;63465;50.862;6.220;2024-02-21T16:37:33;185.17;;;88.17;;
74904;SDS011;63465;50.862;6.220;2024-02-21T16:39:59;174.50;;;83.87;;
74904;SDS011;63465;50.862;6.220;2024-02-21T16:42:24;176.47;;;82.67;;
74904;SDS011;63465;50.862;6.220;2024-02-21T16:44:50;176.10;;;85.73;;
74904;SDS011;63465;50.862;6.220;2024-02-21T16:47:16;180.77;;;85.77;;
74904;SDS011;63465;50.862;6.220;2024-02-21T16:49:42;179.90;;;88.53;;
74904;SDS011;63465;50.862;6.220;2024-02-21T16:52:07;169.57;;;78.80;;
74904;SDS011;63465;50.862;6.220;2024-02-21T16:54:34;168.80;;;80.27;;
74904;SDS011;63465;50.862;6.220;2024-02-21T16:56:59;165.53;;;79.10;;
74904;SDS011;63465;50.862;6.220;2024-02-21T16:59:25;164.63;;;80.67;;
74904;SDS011;63465;50.862;6.220;2024-02-21T17:01:50;160.23;;;79.50;;
74904;SDS011;63465;50.862;6.220;2024-02-21T17:04:16;160.87;;;78.30;;
74904;SDS011;63465;50.862;6.220;2024-02-21T17:06:42;162.50;;;76.87;;
74904;SDS011;63465;50.862;6.220;2024-02-21T17:09:07;149.60;;;75.20;;
74904;SDS011;63465;50.862;6.220;2024-02-21T17:11:34;165.93;;;75.93;;
74904;SDS011;63465;50.862;6.220;2024-02-21T17:14:00;155.63;;;73.83;;
74904;SDS011;63465;50.862;6.220;2024-02-21T17:16:26;147.47;;;74.30;;
74904;SDS011;63465;50.862;6.220;2024-02-21T17:18:51;141.63;;;71.13;;
74904;SDS011;63465;50.862;6.220;2024-02-21T17:21:17;145.30;;;71.43;;
74904;SDS011;63465;50.862;6.220;2024-02-21T17:23:42;149.17;;;69.30;;
74904;SDS011;63465;50.862;6.220;2024-02-21T17:26:08;143.60;;;69.07;;
74904;SDS011;63465;50.862;6.220;2024-02-21T17:28:33;140.77;;;69.60;;
74904;SDS011;63465;50.862;6.220;2024-02-21T17:30:58;132.97;;;66.20;;
74904;SDS011;63465;50.862;6.220;2024-02-21T17:33:24;141.90;;;68.40;;
74904;SDS011;63465;50.862;6.220;2024-02-21T17:35:49;132.07;;;62.90;;
74904;SDS011;63465;50.862;6.220;2024-02-21T17:38:15;132.17;;;65.10;;
74904;SDS011;63465;50.862;6.220;2024-02-21T17:40:43;137.03;;;65.13;;
74904;SDS011;63465;50.862;6.220;2024-02-21T17:43:08;122.90;;;62.60;;
74904;SDS011;63465;50.862;6.220;2024-02-21T17:45:35;130.93;;;64.00;;
74904;SDS011;63465;50.862;6.220;2024-02-21T17:48:00;127.50;;;60.67;;
74904;SDS011;63465;50.862;6.220;2024-02-21T17:50:26;133.77;;;61.53;;
74904;SDS011;63465;50.862;6.220;2024-02-21T17:52:51;122.30;;;60.33;;
74904;SDS011;63465;50.862;6.220;2024-02-21T17:55:16;122.03;;;58.90;;
74904;SDS011;63465;50.862;6.220;2024-02-21T17:57:42;125.57;;;60.63;;
74904;SDS011;63465;50.862;6.220;2024-02-21T18:00:09;120.90;;;58.07;;
74904;SDS011;63465;50.862;6.220;2024-02-21T18:02:36;132.53;;;62.37;;
74904;SDS011;63465;50.862;6.220;2024-02-21T18:05:02;119.03;;;58.00;;
74904;SDS011;63465;50.862;6.220;2024-02-21T18:07:29;116.20;;;58.83;;
74904;SDS011;63465;50.862;6.220;2024-02-21T18:09:54;131.57;;;58.40;;
74904;SDS011;63465;50.862;6.220;2024-02-21T18:12:20;130.60;;;60.50;;
74904;SDS011;63465;50.862;6.220;2024-02-21T18:14:45;127.00;;;61.40;;
74904;SDS011;63465;50.862;6.220;2024-02-21T18:17:11;130.50;;;59.90;;
74904;SDS011;63465;50.862;6.220;2024-02-21T18:19:36;125.27;;;59.50;;
74904;SDS011;63465;50.862;6.220;2024-02-21T18:22:02;132.10;;;59.40;;
74904;SDS011;63465;50.862;6.220;2024-02-21T18:24:27;128.90;;;61.70;;
74904;SDS011;63465;50.862;6.220;2024-02-21T18:26:53;129.57;;;59.97;;
74904;SDS011;63465;50.862;6.220;2024-02-21T18:29:18;125.20;;;61.50;;
74904;SDS011;63465;50.862;6.220;2024-02-21T18:31:43;114.13;;;58.10;;
74904;SDS011;63465;50.862;6.220;2024-02-21T18:34:09;119.87;;;57.77;;
74904;SDS011;63465;50.862;6.220;2024-02-21T18:36:35;119.10;;;58.40;;
74904;SDS011;63465;50.862;6.220;2024-02-21T18:39:01;117.07;;;57.93;;
74904;SDS011;63465;50.862;6.220;2024-02-21T18:41:27;121.87;;;58.97;;
74904;SDS011;63465;50.862;6.220;2024-02-21T18:43:52;116.87;;;57.20;;
74904;SDS011;63465;50.862;6.220;2024-02-21T18:46:18;125.23;;;59.60;;
74904;SDS011;63465;50.862;6.220;2024-02-21T18:48:43;117.93;;;58.17;;
74904;SDS011;63465;50.862;6.220;2024-02-21T18:51:14;119.27;;;57.20;;
74904;SDS011;63465;50.862;6.220;2024-02-21T18:53:40;112.00;;;56.40;;
74904;SDS011;63465;50.862;6.220;2024-02-21T18:56:06;112.87;;;55.83;;
74904;SDS011;63465;50.862;6.220;2024-02-21T18:58:32;112.23;;;54.57;;
74904;SDS011;63465;50.862;6.220;2024-02-21T19:00:58;116.73;;;55.77;;
74904;SDS011;63465;50.862;6.220;2024-02-21T19:03:23;118.30;;;55.70;;
74904;SDS011;63465;50.862;6.220;2024-02-21T19:05:49;113.03;;;56.97;;
74904;SDS011;63465;50.862;6.220;2024-02-21T19:08:14;114.63;;;56.87;;
74904;SDS011;63465;50.862;6.220;2024-02-21T19:10:40;117.47;;;58.70;;
74904;SDS011;63465;50.862;6.220;2024-02-21T19:13:05;117.37;;;58.63;;
74904;SDS011;63465;50.862;6.220;2024-02-21T19:15:31;129.07;;;60.93;;
74904;SDS011;63465;50.862;6.220;2024-02-21T19:17:57;127.70;;;60.17;;
74904;SDS011;63465;50.862;6.220;2024-02-21T19:20:23;124.97;;;59.53;;
74904;SDS011;63465;50.862;6.220;2024-02-21T19:22:49;134.53;;;63.20;;
74904;SDS011;63465;50.862;6.220;2024-02-21T19:25:15;126.27;;;62.60;;
74904;SDS011;63465;50.862;6.220;2024-02-21T19:27:43;138.47;;;67.97;;
74904;SDS011;63465;50.862;6.220;2024-02-21T19:30:08;134.40;;;64.17;;
74904;SDS011;63465;50.862;6.220;2024-02-21T19:32:37;135.67;;;67.63;;
74904;SDS011;63465;50.862;6.220;2024-02-21T19:35:03;135.23;;;68.17;;
74904;SDS011;63465;50.862;6.220;2024-02-21T19:37:29;138.07;;;67.50;;
74904;SDS011;63465;50.862;6.220;2024-02-21T19:39:56;149.47;;;70.33;;
74904;SDS011;63465;50.862;6.220;2024-02-21T19:42:21;149.50;;;72.60;;
74904;SDS011;63465;50.862;6.220;2024-02-21T19:44:46;134.40;;;67.90;;
74904;SDS011;63465;50.862;6.220;2024-02-21T19:47:12;149.40;;;72.20;;
74904;SDS011;63465;50.862;6.220;2024-02-21T19:49:38;146.20;;;69.93;;
74904;SDS011;63465;50.862;6.220;2024-02-21T19:52:03;145.53;;;70.00;;
74904;SDS011;63465;50.862;6.220;2024-02-21T19:54:28;138.07;;;68.20;;
74904;SDS011;63465;50.862;6.220;2024-02-21T19:56:54;145.47;;;69.00;;
74904;SDS011;63465;50.862;6.220;2024-02-21T19:59:19;143.77;;;70.57;;
74904;SDS011;63465;50.862;6.220;2024-02-21T20:01:44;146.10;;;69.70;;
74904;SDS011;63465;50.862;6.220;2024-02-21T20:04:11;145.10;;;69.60;;
74904;SDS011;63465;50.862;6.220;2024-02-21T20:06:37;143.03;;;70.03;;
74904;SDS011;63465;50.862;6.220;2024-02-21T20:09:03;153.20;;;71.83;;
74904;SDS011;63465;50.862;6.220;2024-02-21T20:11:30;140.33;;;69.57;;
74904;SDS011;63465;50.862;6.220;2024-02-21T20:13:56;144.87;;;69.00;;
74904;SDS011;63465;50.862;6.220;2024-02-21T20:16:22;139.60;;;68.67;;
74904;SDS011;63465;50.862;6.220;2024-02-21T20:18:47;136.13;;;65.23;;
74904;SDS011;63465;50.862;6.220;2024-02-21T20:21:14;138.60;;;66.00;;
74904;SDS011;63465;50.862;6.220;2024-02-21T20:23:40;146.03;;;69.90;;
74904;SDS011;63465;50.862;6.220;2024-02-21T20:26:05;148.27;;;71.90;;
74904;SDS011;63465;50.862;6.220;2024-02-21T20:28:31;136.80;;;69.57;;
74904;SDS011;63465;50.862;6.220;2024-02-21T20:30:56;143.83;;;69.50;;
74904;SDS011;63465;50.862;6.220;2024-02-21T20:33:22;145.43;;;71.43;;
74904;SDS011;63465;50.862;6.220;2024-02-21T20:35:48;150.43;;;71.70;;
74904;SDS011;63465;50.862;6.220;2024-02-21T20:38:13;149.00;;;72.20;;
74904;SDS011;63465;50.862;6.220;2024-02-21T20:40:39;158.07;;;74.47;;
74904;SDS011;63465;50.862;6.220;2024-02-21T20:43:04;144.50;;;71.50;;
74904;SDS011;63465;50.862;6.220;2024-02-21T20:45:29;146.30;;;70.67;;
74904;SDS011;63465;50.862;6.220;2024-02-21T20:47:56;151.93;;;72.27;;
74904;SDS011;63465;50.862;6.220;2024-02-21T20:50:22;148.70;;;71.17;;
74904;SDS011;63465;50.862;6.220;2024-02-21T20:52:49;149.93;;;71.57;;
74904;SDS011;63465;50.862;6.220;2024-02-21T20:55:14;154.53;;;77.03;;
74904;SDS011;63465;50.862;6.220;2024-02-21T20:57:40;150.40;;;73.77;;
74904;SDS011;63465;50.862;6.220;2024-02-21T21:00:06;152.57;;;74.97;;
74904;SDS011;63465;50.862;6.220;2024-02-21T21:02:32;160.30;;;77.53;;
74904;SDS011;63465;50.862;6.220;2024-02-21T21:04:57;165.20;;;78.27;;
74904;SDS011;63465;50.862;6.220;2024-02-21T21:07:23;155.80;;;77.47;;
74904;SDS011;63465;50.862;6.220;2024-02-21T21:09:48;160.57;;;78.40;;
74904;SDS011;63465;50.862;6.220;2024-02-21T21:12:13;169.97;;;81.87;;
74904;SDS011;63465;50.862;6.220;2024-02-21T21:14:40;167.67;;;78.57;;
74904;SDS011;63465;50.862;6.220;2024-02-21T21:17:05;160.90;;;81.13;;
74904;SDS011;63465;50.862;6.220;2024-02-21T21:19:30;173.93;;;84.00;;
74904;SDS011;63465;50.862;6.220;2024-02-21T21:21:56;160.80;;;79.03;;
74904;SDS011;63465;50.862;6.220;2024-02-21T21:24:23;171.50;;;84.20;;
74904;SDS011;63465;50.862;6.220;2024-02-21T21:26:49;177.10;;;83.87;;
74904;SDS011;63465;50.862;6.220;2024-02-21T21:29:14;163.40;;;79.07;;
74904;SDS011;63465;50.862;6.220;2024-02-21T21:31:39;169.17;;;83.57;;
74904;SDS011;63465;50.862;6.220;2024-02-21T21:34:05;168.73;;;82.40;;